createdAt,value
2017-09-25T12:27:46.562Z,17.43
2017-09-25T12:28:48.444Z,17.41
2017-09-25T12:29:50.325Z,17.54
2017-09-25T12:30:52.206Z,17.55
2017-09-25T12:31:54.028Z,17.70
2017-09-25T12:32:55.868Z,17.70
2017-09-25T12:33:57.756Z,17.78
2017-09-25T12:34:59.644Z,17.97
2017-09-25T12:36:01.533Z,18.14
2017-09-25T12:37:15.697Z,18.25
2017-09-25T12:38:17.589Z,18.36
2017-09-25T12:39:19.480Z,18.45
2017-09-25T12:40:21.381Z,18.52
2017-09-25T12:41:23.210Z,18.57
2017-09-25T12:42:25.047Z,18.70
2017-09-25T12:43:26.947Z,18.73
2017-09-25T12:44:28.837Z,18.84
2017-09-25T12:45:30.726Z,18.87
2017-09-25T12:46:44.898Z,18.95
2017-09-25T12:47:46.789Z,19.00
2017-09-25T12:48:48.680Z,19.07
2017-09-25T12:49:50.573Z,19.10
2017-09-25T12:50:52.399Z,19.08
2017-09-25T12:51:54.232Z,19.22
2017-09-25T12:52:56.127Z,19.13
2017-09-25T12:53:58.013Z,19.29
2017-09-25T12:54:59.904Z,19.28
2017-09-25T12:56:14.076Z,19.32
2017-09-25T12:57:15.967Z,19.26
2017-09-25T12:58:17.857Z,19.36
2017-09-25T12:59:19.755Z,19.41
2017-09-25T13:00:21.586Z,19.43
2017-09-25T13:01:23.414Z,19.43
2017-09-25T13:02:25.308Z,19.43
2017-09-25T13:03:27.198Z,19.41
2017-09-25T13:04:29.091Z,19.39
2017-09-25T13:05:43.652Z,19.40
2017-09-25T13:06:45.552Z,19.39
2017-09-25T13:07:47.439Z,19.16
2017-09-25T13:08:49.326Z,19.18
2017-09-25T13:09:51.151Z,19.21
2017-09-25T13:10:53.001Z,19.13
2017-09-25T13:11:54.897Z,19.10
2017-09-25T13:12:56.787Z,19.07
2017-09-25T13:13:58.678Z,19.13
2017-09-25T13:15:12.838Z,19.23
2017-09-25T13:16:14.728Z,19.29
2017-09-25T13:17:16.621Z,19.37
2017-09-25T13:18:18.510Z,19.32
2017-09-25T13:19:20.341Z,19.25
2017-09-25T13:20:22.178Z,19.25
2017-09-25T13:21:24.070Z,19.39
2017-09-25T13:22:25.965Z,19.41
2017-09-25T13:23:27.860Z,19.40
2017-09-25T13:24:42.040Z,19.43
2017-09-25T13:25:43.929Z,19.40
2017-09-25T13:26:45.825Z,19.40
2017-09-25T13:27:47.718Z,19.36
2017-09-25T13:28:49.579Z,19.41
2017-09-25T13:29:51.406Z,19.39
2017-09-25T13:30:53.298Z,19.44
2017-09-25T13:31:55.193Z,19.56
2017-09-25T13:32:57.408Z,19.59
2017-09-25T13:34:11.613Z,19.73
2017-09-25T13:35:13.499Z,19.81
2017-09-25T13:36:15.394Z,19.84
2017-09-25T13:37:17.285Z,19.94
2017-09-25T13:38:19.116Z,19.87
2017-09-25T13:39:21.363Z,19.88
2017-09-25T13:40:23.250Z,19.83
2017-09-25T13:41:25.142Z,19.94
2017-09-25T13:42:27.031Z,19.78
2017-09-25T13:43:41.193Z,19.76
2017-09-25T13:44:43.086Z,19.69
2017-09-25T13:45:44.985Z,19.63
2017-09-25T13:46:46.879Z,19.59
2017-09-25T13:47:49.061Z,19.56
2017-09-25T13:48:50.855Z,19.54
2017-09-25T13:49:52.748Z,19.58
2017-09-25T13:50:54.644Z,19.54
2017-09-25T13:51:56.562Z,19.59
2017-09-25T13:53:10.770Z,19.77
2017-09-25T13:54:12.660Z,19.68
2017-09-25T13:55:14.562Z,19.91
2017-09-25T13:56:16.456Z,19.95
2017-09-25T13:57:18.284Z,19.99
2017-09-25T13:58:20.108Z,20.11
2017-09-25T14:02:25.753Z,20.08
2017-09-25T14:03:27.655Z,20.10
2017-09-25T14:04:29.545Z,20.01
2017-09-25T14:05:31.464Z,19.96
2017-09-25T14:06:33.295Z,19.86
2017-09-25T14:07:35.470Z,19.78
2017-09-25T14:08:37.411Z,19.73
2017-09-25T14:09:39.318Z,19.63
2017-09-25T14:10:41.224Z,19.61
2017-09-25T14:11:55.426Z,19.54
2017-09-25T14:12:57.702Z,19.44
2017-09-25T14:13:59.636Z,19.50
2017-09-25T14:15:01.550Z,19.44
2017-09-25T14:16:03.395Z,19.33
2017-09-25T14:17:05.250Z,19.29
2017-09-25T14:18:07.153Z,19.21
2017-09-25T14:19:09.060Z,19.29
2017-09-25T14:20:10.967Z,19.37
2017-09-25T14:21:25.142Z,19.46
2017-09-25T14:22:27.049Z,19.48
2017-09-25T14:23:28.960Z,19.63
2017-09-25T14:24:31.243Z,19.78
2017-09-25T14:25:33.050Z,19.86
2017-09-25T14:26:34.893Z,20.03
2017-09-25T14:27:37.134Z,20.02
2017-09-25T14:28:39.066Z,20.03
2017-09-25T14:29:40.978Z,20.10
2017-09-25T14:30:55.158Z,20.05
2017-09-25T14:31:57.095Z,20.05
2017-09-25T14:32:59.369Z,20.06
2017-09-25T14:34:01.311Z,20.08
2017-09-25T14:35:03.154Z,20.13
2017-09-25T14:36:04.997Z,20.11
2017-09-25T14:37:06.937Z,20.11
2017-09-25T14:38:08.858Z,20.10
2017-09-25T14:39:10.765Z,20.05
2017-09-25T14:40:24.944Z,20.10
2017-09-25T14:41:26.851Z,20.02
2017-09-25T14:42:28.759Z,20.01
2017-09-25T14:43:30.661Z,20.11
2017-09-25T14:44:32.504Z,20.06
2017-09-25T14:45:34.376Z,20.10
2017-09-25T14:46:36.286Z,20.14
2017-09-25T14:47:38.196Z,20.08
2017-09-25T14:48:40.101Z,20.05
2017-09-25T14:49:54.281Z,19.96
2017-09-25T14:50:56.188Z,20.02
2017-09-25T14:51:58.096Z,19.92
2017-09-25T14:53:00.005Z,19.86
2017-09-25T14:54:01.840Z,19.81
2017-09-25T14:55:03.681Z,19.77
2017-09-25T14:56:05.587Z,19.80
2017-09-25T14:57:07.864Z,19.69
2017-09-25T14:58:09.774Z,19.71
2017-09-25T14:59:23.964Z,19.68
2017-09-25T15:00:25.872Z,19.62
2017-09-25T15:01:27.778Z,19.55
2017-09-25T15:02:29.686Z,19.55
2017-09-25T15:03:31.527Z,19.48
2017-09-25T15:04:33.374Z,19.43
2017-09-25T15:05:35.612Z,19.37
2017-09-25T15:06:37.877Z,19.32
2017-09-25T15:07:39.791Z,19.25
2017-09-25T15:08:53.974Z,19.19
2017-09-25T15:09:55.880Z,19.06
2017-09-25T15:10:57.788Z,19.07
2017-09-25T15:11:59.718Z,19.02
2017-09-25T15:13:01.560Z,18.99
2017-09-25T15:14:03.398Z,19.02
2017-09-25T15:15:05.302Z,19.04
2017-09-25T15:16:07.209Z,18.92
2017-09-25T15:17:09.115Z,18.85
2017-09-25T15:18:23.294Z,18.90
2017-09-25T15:19:25.202Z,18.76
2017-09-25T15:20:27.108Z,18.76
2017-09-25T15:21:29.011Z,18.78
2017-09-25T15:22:30.856Z,18.78
2017-09-25T15:23:32.715Z,18.84
2017-09-25T15:24:34.605Z,18.88
2017-09-25T15:25:36.515Z,18.85
2017-09-25T15:26:38.424Z,18.84
2017-09-25T15:27:52.597Z,18.80
2017-09-25T15:28:54.503Z,18.76
2017-09-25T15:29:56.408Z,18.78
2017-09-25T15:30:58.318Z,18.70
2017-09-25T15:32:00.159Z,18.67
2017-09-25T15:33:02.003Z,18.70
2017-09-25T15:34:03.908Z,18.70
2017-09-25T15:35:05.842Z,18.60
2017-09-25T15:36:07.737Z,18.51
2017-09-25T15:37:21.907Z,18.48
2017-09-25T15:38:23.808Z,18.41
2017-09-25T15:39:26.117Z,18.41
2017-09-25T15:40:28.097Z,18.29
2017-09-25T15:41:29.935Z,18.21
2017-09-25T15:42:31.776Z,18.14
2017-09-25T15:43:33.679Z,18.12
2017-09-25T15:44:35.582Z,18.00
2017-09-25T15:45:37.487Z,17.99
2017-09-25T15:46:51.665Z,17.95
2017-09-25T15:47:53.566Z,17.95
2017-09-25T15:48:55.470Z,17.95
2017-09-25T15:49:57.374Z,17.92
2017-09-25T15:50:59.212Z,17.92
2017-09-25T15:52:01.052Z,17.81
2017-09-25T15:53:02.956Z,17.84
2017-09-25T15:54:04.858Z,17.84
2017-09-25T15:55:06.897Z,17.82
2017-09-25T15:56:21.479Z,17.77
2017-09-25T15:57:23.425Z,17.82
2017-09-25T15:58:25.786Z,17.79
2017-09-25T15:59:27.692Z,17.68
2017-09-25T16:00:29.531Z,17.68
2017-09-25T16:01:31.807Z,17.68
2017-09-25T16:02:34.121Z,17.74
2017-09-25T16:03:36.530Z,17.68
2017-09-25T16:04:38.453Z,17.66
2017-09-25T16:05:52.704Z,17.70
2017-09-25T16:06:54.590Z,17.64
2017-09-25T16:07:56.543Z,17.64
2017-09-25T16:08:58.793Z,17.58
2017-09-25T16:10:01.097Z,17.49
2017-09-25T16:11:03.417Z,17.51
2017-09-25T16:12:05.842Z,17.58
2017-09-25T16:13:08.220Z,17.56
2017-09-25T16:14:10.562Z,17.48
2017-09-25T16:15:25.126Z,17.54
2017-09-25T16:16:27.063Z,17.44
2017-09-25T16:17:28.966Z,17.41
2017-09-25T16:18:31.255Z,17.43
2017-09-25T16:19:33.531Z,17.44
2017-09-25T16:20:35.822Z,17.37
2017-09-25T16:21:38.146Z,17.36
2017-09-25T16:22:40.422Z,17.43
2017-09-25T16:23:42.836Z,17.38
2017-09-25T16:24:57.487Z,17.28
2017-09-25T16:25:59.841Z,17.31
2017-09-25T16:27:02.428Z,17.30
2017-09-25T16:28:04.731Z,17.31
2017-09-25T16:29:07.096Z,17.21
2017-09-25T16:30:09.343Z,17.30
2017-09-25T16:31:11.333Z,17.21
2017-09-25T16:32:13.679Z,17.21
2017-09-25T16:33:16.123Z,17.26
2017-09-25T16:34:30.712Z,17.19
2017-09-25T16:35:32.824Z,17.22
2017-09-25T16:36:34.731Z,17.25
2017-09-25T16:37:36.631Z,17.22
2017-09-25T16:38:38.469Z,17.19
2017-09-25T16:39:40.307Z,17.23
2017-09-25T16:40:42.209Z,17.23
2017-09-25T16:41:44.110Z,17.14
2017-09-25T16:42:46.011Z,17.15
2017-09-25T16:44:00.187Z,17.12
2017-09-25T16:45:02.087Z,17.08
2017-09-25T16:46:03.989Z,17.01
2017-09-25T16:47:05.895Z,17.04
2017-09-25T16:48:07.731Z,17.00
2017-09-25T16:49:09.582Z,16.94
2017-09-25T16:50:11.471Z,16.97
2017-09-25T16:51:13.374Z,16.93
2017-09-25T16:52:15.279Z,16.93
2017-09-25T16:53:29.457Z,16.83
2017-09-25T16:54:31.366Z,16.85
2017-09-25T16:55:33.269Z,16.79
2017-09-25T16:56:35.175Z,16.75
2017-09-25T16:57:37.011Z,16.67
2017-09-25T16:58:38.852Z,16.60
2017-09-25T16:59:40.747Z,16.61
2017-09-25T17:00:42.655Z,16.63
2017-09-25T17:01:44.558Z,16.63
2017-09-25T17:02:58.742Z,16.61
2017-09-25T17:04:00.745Z,16.57
2017-09-25T17:05:02.662Z,16.60
2017-09-25T17:06:04.562Z,16.53
2017-09-25T17:07:06.399Z,16.49
2017-09-25T17:08:08.234Z,16.60
2017-09-25T17:09:10.140Z,16.57
2017-09-25T17:10:12.056Z,16.60
2017-09-25T17:11:13.948Z,16.57
2017-09-25T17:12:28.122Z,16.56
2017-09-25T17:13:30.032Z,16.50
2017-09-25T17:14:31.930Z,16.49
2017-09-25T17:15:33.836Z,16.50
2017-09-25T17:16:35.673Z,16.46
2017-09-25T17:17:37.508Z,16.52
2017-09-25T17:18:39.408Z,16.41
2017-09-25T17:19:41.308Z,16.45
2017-09-25T17:20:43.209Z,16.39
2017-09-25T17:21:57.406Z,16.34
2017-09-25T17:22:59.279Z,16.33
2017-09-25T17:24:01.182Z,16.33
2017-09-25T17:25:03.081Z,16.27
2017-09-25T17:26:04.916Z,16.38
2017-09-25T17:27:06.752Z,16.35
2017-09-25T17:28:08.653Z,16.23
2017-09-25T17:29:10.554Z,16.25
2017-09-25T17:30:12.454Z,16.17
2017-09-25T17:31:26.626Z,16.21
2017-09-25T17:32:28.528Z,16.12
2017-09-25T17:33:30.421Z,16.08
2017-09-25T17:34:32.325Z,16.11
2017-09-25T17:35:34.158Z,16.15
2017-09-25T17:36:36.006Z,16.05
2017-09-25T17:37:37.894Z,16.07
2017-09-25T17:38:39.794Z,16.02
2017-09-25T17:39:41.694Z,16.05
2017-09-25T17:40:55.861Z,16.04
2017-09-25T17:41:57.759Z,16.01
2017-09-25T17:42:59.660Z,15.97
2017-09-25T17:44:01.565Z,16.02
2017-09-25T17:45:03.401Z,16.02
2017-09-25T17:46:05.235Z,15.94
2017-09-25T17:47:07.137Z,15.96
2017-09-25T17:48:09.036Z,15.93
2017-09-25T17:49:10.939Z,15.94
2017-09-25T17:50:25.091Z,15.89
2017-09-25T17:51:26.991Z,15.97
2017-09-25T17:52:28.886Z,15.96
2017-09-25T17:53:30.791Z,15.94
2017-09-25T17:54:32.629Z,15.86
2017-09-25T17:55:34.455Z,15.87
2017-09-25T17:56:36.352Z,15.84
2017-09-25T17:57:38.262Z,15.80
2017-09-25T17:58:40.157Z,15.82
2017-09-25T17:59:54.325Z,15.82
2017-09-25T18:00:56.240Z,15.82
2017-09-25T18:01:58.126Z,15.76
